Brownwood, North Carolina
Current Conditions -  °F | °C
As of 5:15 AM on Saturday 20 Dec 2014 (Local Time) from KTNB Reporting Station
Overcast Overcast  
Wind Chill: 33°   Ceiling: 3600
Heat Index: 33°   Visibility: 10mi
Dew Point: 24°   Wind: 3mph
Humidity: 71%   Direction: 130°SE
Pressure: 30.16"   Gusts: NA
Location:  36.3248°N, 81.6045°W
Report Text: KTNB 201015Z AUTO 13003KT 10SM BKN036 OVC042 01/M04 A3016 RMK AO2 T00051042
Loading
Personal Weather Stations






























Interactive Weather Map New forecast layout! Learn more

10-Day Weather Forecast

Advertisements
Track Severe Weather on mobile